sensor_id;sensor_type;location;lat;lon;timestamp;P1;durP1;ratioP1;P2;durP2;ratioP2
36001;SDS011;22070;50.922;5.430;2024-02-28T00:02:10;57.47;;;19.37;;
36001;SDS011;22070;50.922;5.430;2024-02-28T00:04:35;39.77;;;15.83;;
36001;SDS011;22070;50.922;5.430;2024-02-28T00:07:01;53.33;;;18.33;;
36001;SDS011;22070;50.922;5.430;2024-02-28T00:09:27;46.73;;;17.53;;
36001;SDS011;22070;50.922;5.430;2024-02-28T00:11:52;49.90;;;17.88;;
36001;SDS011;22070;50.922;5.430;2024-02-28T00:14:18;50.33;;;17.80;;
36001;SDS011;22070;50.922;5.430;2024-02-28T00:16:44;52.70;;;16.80;;
36001;SDS011;22070;50.922;5.430;2024-02-28T00:19:11;55.45;;;18.83;;
36001;SDS011;22070;50.922;5.430;2024-02-28T00:21:37;53.60;;;16.85;;
36001;SDS011;22070;50.922;5.430;2024-02-28T00:24:06;55.92;;;18.58;;
36001;SDS011;22070;50.922;5.430;2024-02-28T00:26:32;62.65;;;17.40;;
36001;SDS011;22070;50.922;5.430;2024-02-28T00:28:58;68.63;;;19.07;;
36001;SDS011;22070;50.922;5.430;2024-02-28T00:31:24;69.27;;;19.80;;
36001;SDS011;22070;50.922;5.430;2024-02-28T00:33:50;58.53;;;19.40;;
36001;SDS011;22070;50.922;5.430;2024-02-28T00:36:16;62.63;;;19.03;;
36001;SDS011;22070;50.922;5.430;2024-02-28T00:38:41;53.20;;;19.00;;
36001;SDS011;22070;50.922;5.430;2024-02-28T00:41:07;75.00;;;19.87;;
36001;SDS011;22070;50.922;5.430;2024-02-28T00:43:33;69.87;;;17.97;;
36001;SDS011;22070;50.922;5.430;2024-02-28T00:45:59;67.73;;;19.33;;
36001;SDS011;22070;50.922;5.430;2024-02-28T00:48:25;64.27;;;18.90;;
36001;SDS011;22070;50.922;5.430;2024-02-28T00:53:17;55.42;;;18.08;;
36001;SDS011;22070;50.922;5.430;2024-02-28T00:55:43;56.37;;;17.27;;
36001;SDS011;22070;50.922;5.430;2024-02-28T00:58:10;58.57;;;18.87;;
36001;SDS011;22070;50.922;5.430;2024-02-28T01:00:35;55.60;;;19.17;;
36001;SDS011;22070;50.922;5.430;2024-02-28T01:03:01;55.20;;;18.47;;
36001;SDS011;22070;50.922;5.430;2024-02-28T01:05:30;57.13;;;18.58;;
36001;SDS011;22070;50.922;5.430;2024-02-28T01:07:56;63.70;;;19.80;;
36001;SDS011;22070;50.922;5.430;2024-02-28T01:10:21;60.10;;;18.30;;
36001;SDS011;22070;50.922;5.430;2024-02-28T01:12:47;55.40;;;18.53;;
36001;SDS011;22070;50.922;5.430;2024-02-28T01:15:13;60.85;;;17.38;;
36001;SDS011;22070;50.922;5.430;2024-02-28T01:17:39;61.33;;;18.47;;
36001;SDS011;22070;50.922;5.430;2024-02-28T01:20:05;56.50;;;16.57;;
36001;SDS011;22070;50.922;5.430;2024-02-28T01:22:32;51.88;;;16.52;;
36001;SDS011;22070;50.922;5.430;2024-02-28T01:24:58;49.47;;;17.37;;
36001;SDS011;22070;50.922;5.430;2024-02-28T01:27:24;39.27;;;11.63;;
36001;SDS011;22070;50.922;5.430;2024-02-28T01:29:50;57.33;;;16.43;;
36001;SDS011;22070;50.922;5.430;2024-02-28T01:32:15;50.03;;;16.93;;
36001;SDS011;22070;50.922;5.430;2024-02-28T01:34:41;48.87;;;15.27;;
36001;SDS011;22070;50.922;5.430;2024-02-28T01:37:06;48.70;;;14.90;;
36001;SDS011;22070;50.922;5.430;2024-02-28T01:39:32;47.13;;;16.47;;
36001;SDS011;22070;50.922;5.430;2024-02-28T01:41:58;45.70;;;14.10;;
36001;SDS011;22070;50.922;5.430;2024-02-28T01:44:23;46.73;;;16.23;;
36001;SDS011;22070;50.922;5.430;2024-02-28T01:46:49;45.50;;;15.43;;
36001;SDS011;22070;50.922;5.430;2024-02-28T01:49:16;44.67;;;15.45;;
36001;SDS011;22070;50.922;5.430;2024-02-28T01:51:42;46.78;;;15.02;;
36001;SDS011;22070;50.922;5.430;2024-02-28T01:54:10;43.60;;;15.30;;
36001;SDS011;22070;50.922;5.430;2024-02-28T01:56:36;36.47;;;10.77;;
36001;SDS011;22070;50.922;5.430;2024-02-28T01:59:03;46.33;;;15.57;;
36001;SDS011;22070;50.922;5.430;2024-02-28T02:01:29;42.65;;;14.93;;
36001;SDS011;22070;50.922;5.430;2024-02-28T02:03:55;37.97;;;13.73;;
36001;SDS011;22070;50.922;5.430;2024-02-28T02:06:21;43.08;;;14.85;;
36001;SDS011;22070;50.922;5.430;2024-02-28T02:08:47;41.53;;;14.90;;
36001;SDS011;22070;50.922;5.430;2024-02-28T02:11:17;40.03;;;15.27;;
36001;SDS011;22070;50.922;5.430;2024-02-28T02:13:52;39.15;;;13.82;;
36001;SDS011;22070;50.922;5.430;2024-02-28T02:16:18;43.50;;;14.45;;
36001;SDS011;22070;50.922;5.430;2024-02-28T02:18:47;54.28;;;16.30;;
36001;SDS011;22070;50.922;5.430;2024-02-28T02:21:13;43.37;;;14.17;;
36001;SDS011;22070;50.922;5.430;2024-02-28T02:23:42;38.97;;;13.88;;
36001;SDS011;22070;50.922;5.430;2024-02-28T02:26:08;38.13;;;14.13;;
36001;SDS011;22070;50.922;5.430;2024-02-28T02:28:34;44.57;;;14.03;;
36001;SDS011;22070;50.922;5.430;2024-02-28T02:30:59;39.23;;;13.63;;
36001;SDS011;22070;50.922;5.430;2024-02-28T02:33:25;43.80;;;15.17;;
36001;SDS011;22070;50.922;5.430;2024-02-28T02:35:51;41.23;;;13.87;;
36001;SDS011;22070;50.922;5.430;2024-02-28T02:38:18;35.85;;;12.75;;
36001;SDS011;22070;50.922;5.430;2024-02-28T02:40:48;43.30;;;14.13;;
36001;SDS011;22070;50.922;5.430;2024-02-28T02:43:17;43.28;;;14.73;;
36001;SDS011;22070;50.922;5.430;2024-02-28T02:45:43;40.93;;;14.70;;
36001;SDS011;22070;50.922;5.430;2024-02-28T02:48:08;42.90;;;13.90;;
36001;SDS011;22070;50.922;5.430;2024-02-28T02:50:34;49.37;;;15.07;;
36001;SDS011;22070;50.922;5.430;2024-02-28T02:53:00;44.40;;;14.17;;
36001;SDS011;22070;50.922;5.430;2024-02-28T02:55:27;44.42;;;13.95;;
36001;SDS011;22070;50.922;5.430;2024-02-28T02:57:53;42.20;;;14.90;;
36001;SDS011;22070;50.922;5.430;2024-02-28T03:00:20;45.78;;;14.45;;
36001;SDS011;22070;50.922;5.430;2024-02-28T03:02:46;43.28;;;15.13;;
36001;SDS011;22070;50.922;5.430;2024-02-28T03:05:11;42.07;;;14.67;;
36001;SDS011;22070;50.922;5.430;2024-02-28T03:07:37;49.67;;;15.70;;
36001;SDS011;22070;50.922;5.430;2024-02-28T03:10:03;39.83;;;13.77;;
36001;SDS011;22070;50.922;5.430;2024-02-28T03:12:29;40.77;;;13.67;;
36001;SDS011;22070;50.922;5.430;2024-02-28T03:14:54;40.67;;;14.13;;
36001;SDS011;22070;50.922;5.430;2024-02-28T03:17:20;43.90;;;14.47;;
36001;SDS011;22070;50.922;5.430;2024-02-28T03:19:46;40.57;;;14.37;;
36001;SDS011;22070;50.922;5.430;2024-02-28T03:22:12;44.97;;;15.02;;
36001;SDS011;22070;50.922;5.430;2024-02-28T03:24:38;38.57;;;14.83;;
36001;SDS011;22070;50.922;5.430;2024-02-28T03:27:03;41.83;;;14.17;;
36001;SDS011;22070;50.922;5.430;2024-02-28T03:29:29;44.73;;;15.23;;
36001;SDS011;22070;50.922;5.430;2024-02-28T03:31:55;38.53;;;13.77;;
36001;SDS011;22070;50.922;5.430;2024-02-28T03:34:23;38.33;;;14.10;;
36001;SDS011;22070;50.922;5.430;2024-02-28T03:36:48;42.50;;;13.87;;
36001;SDS011;22070;50.922;5.430;2024-02-28T03:39:14;44.93;;;15.37;;
36001;SDS011;22070;50.922;5.430;2024-02-28T03:41:40;42.73;;;13.10;;
36001;SDS011;22070;50.922;5.430;2024-02-28T03:44:06;43.17;;;14.10;;
36001;SDS011;22070;50.922;5.430;2024-02-28T03:46:32;43.83;;;14.30;;
36001;SDS011;22070;50.922;5.430;2024-02-28T03:48:58;40.27;;;14.07;;
36001;SDS011;22070;50.922;5.430;2024-02-28T03:51:23;39.05;;;13.45;;
36001;SDS011;22070;50.922;5.430;2024-02-28T03:53:49;39.33;;;12.57;;
36001;SDS011;22070;50.922;5.430;2024-02-28T03:59:07;44.10;;;14.02;;
36001;SDS011;22070;50.922;5.430;2024-02-28T04:01:32;44.80;;;14.10;;
36001;SDS011;22070;50.922;5.430;2024-02-28T04:03:58;45.93;;;14.60;;
36001;SDS011;22070;50.922;5.430;2024-02-28T04:06:24;42.97;;;14.90;;
36001;SDS011;22070;50.922;5.430;2024-02-28T04:08:50;41.70;;;9.77;;
36001;SDS011;22070;50.922;5.430;2024-02-28T04:11:16;44.07;;;14.27;;
36001;SDS011;22070;50.922;5.430;2024-02-28T04:13:41;41.43;;;14.10;;
36001;SDS011;22070;50.922;5.430;2024-02-28T04:16:07;51.10;;;13.83;;
36001;SDS011;22070;50.922;5.430;2024-02-28T04:18:34;47.17;;;12.93;;
36001;SDS011;22070;50.922;5.430;2024-02-28T04:21:00;43.03;;;13.23;;
36001;SDS011;22070;50.922;5.430;2024-02-28T04:23:26;38.70;;;9.13;;
36001;SDS011;22070;50.922;5.430;2024-02-28T04:25:52;27.20;;;8.90;;
36001;SDS011;22070;50.922;5.430;2024-02-28T04:28:17;36.87;;;11.83;;
36001;SDS011;22070;50.922;5.430;2024-02-28T04:30:43;41.70;;;11.67;;
36001;SDS011;22070;50.922;5.430;2024-02-28T04:33:08;39.33;;;11.67;;
36001;SDS011;22070;50.922;5.430;2024-02-28T04:35:34;55.37;;;12.43;;
36001;SDS011;22070;50.922;5.430;2024-02-28T04:38:00;38.07;;;11.23;;
36001;SDS011;22070;50.922;5.430;2024-02-28T04:40:26;28.97;;;8.00;;
36001;SDS011;22070;50.922;5.430;2024-02-28T04:42:51;37.57;;;10.77;;
36001;SDS011;22070;50.922;5.430;2024-02-28T04:45:17;33.20;;;10.83;;
36001;SDS011;22070;50.922;5.430;2024-02-28T04:47:43;46.33;;;10.93;;
36001;SDS011;22070;50.922;5.430;2024-02-28T04:50:09;36.13;;;10.10;;
36001;SDS011;22070;50.922;5.430;2024-02-28T04:52:35;34.80;;;11.05;;
36001;SDS011;22070;50.922;5.430;2024-02-28T04:55:01;28.33;;;10.67;;
36001;SDS011;22070;50.922;5.430;2024-02-28T04:57:27;37.93;;;11.17;;
36001;SDS011;22070;50.922;5.430;2024-02-28T04:59:53;29.17;;;10.87;;
36001;SDS011;22070;50.922;5.430;2024-02-28T05:02:18;44.27;;;11.40;;
36001;SDS011;22070;50.922;5.430;2024-02-28T05:04:47;36.45;;;11.68;;
36001;SDS011;22070;50.922;5.430;2024-02-28T05:07:12;33.70;;;9.90;;
36001;SDS011;22070;50.922;5.430;2024-02-28T05:09:38;31.87;;;10.80;;
36001;SDS011;22070;50.922;5.430;2024-02-28T05:12:04;34.63;;;10.63;;
36001;SDS011;22070;50.922;5.430;2024-02-28T05:14:29;42.67;;;10.47;;
36001;SDS011;22070;50.922;5.430;2024-02-28T05:16:55;34.50;;;10.80;;
36001;SDS011;22070;50.922;5.430;2024-02-28T05:19:21;34.90;;;11.10;;
36001;SDS011;22070;50.922;5.430;2024-02-28T05:21:46;31.67;;;10.20;;
36001;SDS011;22070;50.922;5.430;2024-02-28T05:24:13;32.80;;;10.70;;
36001;SDS011;22070;50.922;5.430;2024-02-28T05:26:39;28.30;;;7.00;;
36001;SDS011;22070;50.922;5.430;2024-02-28T05:29:04;44.63;;;9.73;;
36001;SDS011;22070;50.922;5.430;2024-02-28T05:31:31;46.53;;;10.50;;
36001;SDS011;22070;50.922;5.430;2024-02-28T05:33:57;38.35;;;10.32;;
36001;SDS011;22070;50.922;5.430;2024-02-28T05:36:24;41.42;;;10.70;;
36001;SDS011;22070;50.922;5.430;2024-02-28T05:38:53;38.47;;;10.50;;
36001;SDS011;22070;50.922;5.430;2024-02-28T05:41:19;44.80;;;11.52;;
36001;SDS011;22070;50.922;5.430;2024-02-28T05:43:46;40.93;;;10.57;;
36001;SDS011;22070;50.922;5.430;2024-02-28T05:46:12;55.85;;;10.65;;
36001;SDS011;22070;50.922;5.430;2024-02-28T05:48:38;46.30;;;10.43;;
36001;SDS011;22070;50.922;5.430;2024-02-28T05:51:06;46.38;;;9.90;;
36001;SDS011;22070;50.922;5.430;2024-02-28T05:53:32;39.70;;;11.30;;
36001;SDS011;22070;50.922;5.430;2024-02-28T05:56:00;48.78;;;11.20;;
36001;SDS011;22070;50.922;5.430;2024-02-28T05:58:26;43.67;;;11.25;;
36001;SDS011;22070;50.922;5.430;2024-02-28T06:00:52;53.20;;;10.13;;
36001;SDS011;22070;50.922;5.430;2024-02-28T06:03:18;39.83;;;10.50;;
36001;SDS011;22070;50.922;5.430;2024-02-28T06:05:43;32.50;;;10.20;;
36001;SDS011;22070;50.922;5.430;2024-02-28T06:08:09;44.90;;;10.07;;
36001;SDS011;22070;50.922;5.430;2024-02-28T06:10:35;35.83;;;10.77;;
36001;SDS011;22070;50.922;5.430;2024-02-28T06:13:01;20.77;;;6.90;;
36001;SDS011;22070;50.922;5.430;2024-02-28T06:15:27;35.38;;;9.48;;
36001;SDS011;22070;50.922;5.430;2024-02-28T06:17:55;29.67;;;10.13;;
36001;SDS011;22070;50.922;5.430;2024-02-28T06:20:25;27.92;;;10.70;;
36001;SDS011;22070;50.922;5.430;2024-02-28T06:22:51;42.20;;;10.43;;
36001;SDS011;22070;50.922;5.430;2024-02-28T06:25:17;32.90;;;9.43;;
36001;SDS011;22070;50.922;5.430;2024-02-28T06:27:44;30.48;;;10.05;;
36001;SDS011;22070;50.922;5.430;2024-02-28T06:30:09;24.30;;;9.43;;
36001;SDS011;22070;50.922;5.430;2024-02-28T06:32:37;29.10;;;9.68;;
36001;SDS011;22070;50.922;5.430;2024-02-28T06:35:03;26.70;;;8.90;;
36001;SDS011;22070;50.922;5.430;2024-02-28T06:37:29;34.70;;;8.95;;
36001;SDS011;22070;50.922;5.430;2024-02-28T06:39:55;26.47;;;9.40;;
36001;SDS011;22070;50.922;5.430;2024-02-28T06:42:20;23.10;;;8.87;;
36001;SDS011;22070;50.922;5.430;2024-02-28T06:44:46;28.10;;;10.60;;
36001;SDS011;22070;50.922;5.430;2024-02-28T06:47:13;28.70;;;9.32;;
36001;SDS011;22070;50.922;5.430;2024-02-28T06:49:38;28.97;;;9.47;;
36001;SDS011;22070;50.922;5.430;2024-02-28T06:52:04;35.87;;;9.93;;
36001;SDS011;22070;50.922;5.430;2024-02-28T06:54:30;31.43;;;9.30;;
36001;SDS011;22070;50.922;5.430;2024-02-28T06:56:56;26.27;;;9.88;;
36001;SDS011;22070;50.922;5.430;2024-02-28T06:59:22;34.00;;;9.27;;
36001;SDS011;22070;50.922;5.430;2024-02-28T07:01:48;34.57;;;10.43;;
36001;SDS011;22070;50.922;5.430;2024-02-28T07:04:14;28.83;;;9.70;;
36001;SDS011;22070;50.922;5.430;2024-02-28T07:06:39;31.37;;;9.80;;
36001;SDS011;22070;50.922;5.430;2024-02-28T07:09:07;33.10;;;10.57;;
36001;SDS011;22070;50.922;5.430;2024-02-28T07:11:33;28.40;;;9.85;;
36001;SDS011;22070;50.922;5.430;2024-02-28T07:13:59;28.50;;;10.53;;
36001;SDS011;22070;50.922;5.430;2024-02-28T07:16:28;33.78;;;10.63;;
36001;SDS011;22070;50.922;5.430;2024-02-28T07:21:19;38.00;;;10.17;;
36001;SDS011;22070;50.922;5.430;2024-02-28T07:23:45;34.40;;;9.83;;
36001;SDS011;22070;50.922;5.430;2024-02-28T07:26:17;34.03;;;10.53;;
36001;SDS011;22070;50.922;5.430;2024-02-28T07:28:42;29.15;;;10.02;;
36001;SDS011;22070;50.922;5.430;2024-02-28T07:31:14;38.30;;;10.13;;
36001;SDS011;22070;50.922;5.430;2024-02-28T07:33:44;38.53;;;10.82;;
36001;SDS011;22070;50.922;5.430;2024-02-28T07:36:10;35.05;;;10.23;;
36001;SDS011;22070;50.922;5.430;2024-02-28T07:38:36;35.23;;;10.27;;
36001;SDS011;22070;50.922;5.430;2024-02-28T07:41:04;34.97;;;10.07;;
36001;SDS011;22070;50.922;5.430;2024-02-28T07:43:30;34.57;;;9.90;;
36001;SDS011;22070;50.922;5.430;2024-02-28T07:46:02;33.97;;;10.63;;
36001;SDS011;22070;50.922;5.430;2024-02-28T07:48:32;32.28;;;9.23;;
36001;SDS011;22070;50.922;5.430;2024-02-28T07:50:57;37.40;;;10.20;;
36001;SDS011;22070;50.922;5.430;2024-02-28T07:53:23;40.40;;;11.88;;
36001;SDS011;22070;50.922;5.430;2024-02-28T07:55:48;36.73;;;7.97;;
36001;SDS011;22070;50.922;5.430;2024-02-28T07:58:15;41.08;;;10.35;;
36001;SDS011;22070;50.922;5.430;2024-02-28T08:00:41;25.63;;;7.28;;
36001;SDS011;22070;50.922;5.430;2024-02-28T08:03:08;45.22;;;10.70;;
36001;SDS011;22070;50.922;5.430;2024-02-28T08:05:34;43.37;;;9.93;;
36001;SDS011;22070;50.922;5.430;2024-02-28T08:08:04;42.63;;;10.50;;
36001;SDS011;22070;50.922;5.430;2024-02-28T08:10:31;48.20;;;10.18;;
36001;SDS011;22070;50.922;5.430;2024-02-28T08:12:56;39.87;;;10.70;;
36001;SDS011;22070;50.922;5.430;2024-02-28T08:15:22;37.37;;;10.87;;
36001;SDS011;22070;50.922;5.430;2024-02-28T08:17:48;42.08;;;10.57;;
36001;SDS011;22070;50.922;5.430;2024-02-28T08:20:14;44.90;;;10.93;;
36001;SDS011;22070;50.922;5.430;2024-02-28T08:22:39;44.33;;;11.05;;
36001;SDS011;22070;50.922;5.430;2024-02-28T08:25:05;52.67;;;11.50;;
36001;SDS011;22070;50.922;5.430;2024-02-28T08:27:31;44.72;;;11.00;;
36001;SDS011;22070;50.922;5.430;2024-02-28T08:30:00;42.50;;;10.65;;
36001;SDS011;22070;50.922;5.430;2024-02-28T08:32:25;45.60;;;11.10;;
36001;SDS011;22070;50.922;5.430;2024-02-28T08:34:51;46.90;;;10.77;;
36001;SDS011;22070;50.922;5.430;2024-02-28T08:37:19;46.10;;;9.52;;
36001;SDS011;22070;50.922;5.430;2024-02-28T08:39:45;57.23;;;10.40;;
36001;SDS011;22070;50.922;5.430;2024-02-28T08:42:10;56.57;;;10.43;;
36001;SDS011;22070;50.922;5.430;2024-02-28T08:44:37;49.13;;;10.52;;
36001;SDS011;22070;50.922;5.430;2024-02-28T08:47:02;63.70;;;12.50;;
36001;SDS011;22070;50.922;5.430;2024-02-28T08:49:28;40.20;;;8.43;;
36001;SDS011;22070;50.922;5.430;2024-02-28T08:54:21;51.10;;;10.97;;
36001;SDS011;22070;50.922;5.430;2024-02-28T08:56:47;45.47;;;10.37;;
36001;SDS011;22070;50.922;5.430;2024-02-28T08:59:12;55.50;;;10.48;;
36001;SDS011;22070;50.922;5.430;2024-02-28T09:01:38;36.92;;;7.78;;
36001;SDS011;22070;50.922;5.430;2024-02-28T09:04:06;58.45;;;11.77;;
36001;SDS011;22070;50.922;5.430;2024-02-28T09:06:31;58.67;;;11.77;;
36001;SDS011;22070;50.922;5.430;2024-02-28T09:08:57;59.37;;;12.07;;
36001;SDS011;22070;50.922;5.430;2024-02-28T09:11:23;58.77;;;11.90;;
36001;SDS011;22070;50.922;5.430;2024-02-28T09:13:50;52.80;;;11.98;;
36001;SDS011;22070;50.922;5.430;2024-02-28T09:16:15;57.03;;;11.70;;
36001;SDS011;22070;50.922;5.430;2024-02-28T09:18:41;54.07;;;11.40;;
36001;SDS011;22070;50.922;5.430;2024-02-28T09:21:07;57.20;;;11.87;;
36001;SDS011;22070;50.922;5.430;2024-02-28T09:23:34;49.88;;;10.93;;
36001;SDS011;22070;50.922;5.430;2024-02-28T09:26:03;52.33;;;12.03;;
36001;SDS011;22070;50.922;5.430;2024-02-28T09:28:32;67.47;;;11.73;;
36001;SDS011;22070;50.922;5.430;2024-02-28T09:30:57;60.35;;;12.75;;
36001;SDS011;22070;50.922;5.430;2024-02-28T09:33:23;59.53;;;12.07;;
36001;SDS011;22070;50.922;5.430;2024-02-28T09:35:49;61.83;;;12.87;;
36001;SDS011;22070;50.922;5.430;2024-02-28T09:38:14;50.03;;;12.23;;
36001;SDS011;22070;50.922;5.430;2024-02-28T09:40:40;58.27;;;11.87;;
36001;SDS011;22070;50.922;5.430;2024-02-28T09:45:36;42.15;;;10.48;;
36001;SDS011;22070;50.922;5.430;2024-02-28T09:48:02;40.00;;;11.50;;
36001;SDS011;22070;50.922;5.430;2024-02-28T09:52:55;36.75;;;9.20;;
36001;SDS011;22070;50.922;5.430;2024-02-28T09:55:21;34.80;;;9.07;;
36001;SDS011;22070;50.922;5.430;2024-02-28T09:57:47;35.17;;;8.40;;
36001;SDS011;22070;50.922;5.430;2024-02-28T10:00:14;39.33;;;9.93;;
36001;SDS011;22070;50.922;5.430;2024-02-28T10:02:43;40.90;;;10.63;;
36001;SDS011;22070;50.922;5.430;2024-02-28T10:05:11;37.95;;;9.52;;
36001;SDS011;22070;50.922;5.430;2024-02-28T10:07:37;34.47;;;9.27;;
36001;SDS011;22070;50.922;5.430;2024-02-28T10:10:03;37.10;;;10.43;;
36001;SDS011;22070;50.922;5.430;2024-02-28T10:12:30;33.22;;;9.23;;
36001;SDS011;22070;50.922;5.430;2024-02-28T10:14:56;40.90;;;10.38;;
36001;SDS011;22070;50.922;5.430;2024-02-28T10:17:21;36.13;;;10.37;;
36001;SDS011;22070;50.922;5.430;2024-02-28T10:19:47;33.47;;;10.70;;
36001;SDS011;22070;50.922;5.430;2024-02-28T10:22:13;32.50;;;8.60;;
36001;SDS011;22070;50.922;5.430;2024-02-28T10:24:39;28.67;;;8.68;;
36001;SDS011;22070;50.922;5.430;2024-02-28T10:27:04;30.90;;;9.30;;
36001;SDS011;22070;50.922;5.430;2024-02-28T10:29:30;29.33;;;8.17;;
36001;SDS011;22070;50.922;5.430;2024-02-28T10:31:59;28.52;;;9.10;;
36001;SDS011;22070;50.922;5.430;2024-02-28T10:34:25;36.35;;;10.25;;
36001;SDS011;22070;50.922;5.430;2024-02-28T10:36:51;23.92;;;8.70;;
36001;SDS011;22070;50.922;5.430;2024-02-28T10:39:16;29.33;;;9.13;;
36001;SDS011;22070;50.922;5.430;2024-02-28T10:41:43;26.98;;;8.55;;
36001;SDS011;22070;50.922;5.430;2024-02-28T10:44:12;26.90;;;8.27;;
36001;SDS011;22070;50.922;5.430;2024-02-28T10:46:38;21.27;;;7.32;;
36001;SDS011;22070;50.922;5.430;2024-02-28T10:49:05;22.07;;;8.27;;
36001;SDS011;22070;50.922;5.430;2024-02-28T10:51:34;25.63;;;8.00;;
36001;SDS011;22070;50.922;5.430;2024-02-28T10:54:10;24.88;;;8.27;;
36001;SDS011;22070;50.922;5.430;2024-02-28T10:56:37;22.85;;;7.57;;
36001;SDS011;22070;50.922;5.430;2024-02-28T10:59:06;21.75;;;7.35;;
36001;SDS011;22070;50.922;5.430;2024-02-28T11:01:36;26.10;;;8.13;;
36001;SDS011;22070;50.922;5.430;2024-02-28T11:04:04;24.90;;;8.23;;
36001;SDS011;22070;50.922;5.430;2024-02-28T11:06:30;22.52;;;7.78;;
36001;SDS011;22070;50.922;5.430;2024-02-28T11:08:58;26.63;;;8.15;;
36001;SDS011;22070;50.922;5.430;2024-02-28T11:11:29;22.25;;;7.78;;
36001;SDS011;22070;50.922;5.430;2024-02-28T11:13:58;29.35;;;8.32;;
36001;SDS011;22070;50.922;5.430;2024-02-28T11:16:31;24.17;;;8.18;;
36001;SDS011;22070;50.922;5.430;2024-02-28T11:18:58;27.50;;;7.80;;
36001;SDS011;22070;50.922;5.430;2024-02-28T11:21:25;25.63;;;8.45;;
36001;SDS011;22070;50.922;5.430;2024-02-28T11:23:52;28.50;;;8.40;;
36001;SDS011;22070;50.922;5.430;2024-02-28T11:26:22;28.23;;;8.95;;
36001;SDS011;22070;50.922;5.430;2024-02-28T11:28:49;24.38;;;8.10;;
36001;SDS011;22070;50.922;5.430;2024-02-28T11:31:15;25.00;;;8.47;;
36001;SDS011;22070;50.922;5.430;2024-02-28T11:33:41;29.02;;;8.98;;
36001;SDS011;22070;50.922;5.430;2024-02-28T11:36:07;27.50;;;8.90;;
36001;SDS011;22070;50.922;5.430;2024-02-28T11:38:36;26.67;;;7.93;;
36001;SDS011;22070;50.922;5.430;2024-02-28T11:41:04;19.55;;;7.93;;
36001;SDS011;22070;50.922;5.430;2024-02-28T11:43:31;23.90;;;8.40;;
36001;SDS011;22070;50.922;5.430;2024-02-28T11:45:57;24.38;;;7.43;;
36001;SDS011;22070;50.922;5.430;2024-02-28T11:50:50;18.40;;;6.25;;
36001;SDS011;22070;50.922;5.430;2024-02-28T11:53:16;28.17;;;7.07;;
36001;SDS011;22070;50.922;5.430;2024-02-28T11:55:42;18.60;;;7.47;;
36001;SDS011;22070;50.922;5.430;2024-02-28T11:58:08;26.60;;;7.83;;
36001;SDS011;22070;50.922;5.430;2024-02-28T12:00:34;19.85;;;7.32;;
36001;SDS011;22070;50.922;5.430;2024-02-28T12:03:04;17.43;;;6.70;;
36001;SDS011;22070;50.922;5.430;2024-02-28T12:05:31;25.60;;;7.22;;
36001;SDS011;22070;50.922;5.430;2024-02-28T12:07:56;19.50;;;6.88;;
36001;SDS011;22070;50.922;5.430;2024-02-28T12:10:23;17.10;;;6.93;;
36001;SDS011;22070;50.922;5.430;2024-02-28T12:12:50;17.75;;;6.13;;
36001;SDS011;22070;50.922;5.430;2024-02-28T12:15:15;12.83;;;5.90;;
36001;SDS011;22070;50.922;5.430;2024-02-28T12:17:42;16.67;;;5.93;;
36001;SDS011;22070;50.922;5.430;2024-02-28T12:20:08;15.55;;;5.97;;
36001;SDS011;22070;50.922;5.430;2024-02-28T12:22:34;16.83;;;6.00;;
36001;SDS011;22070;50.922;5.430;2024-02-28T12:24:59;8.63;;;4.22;;
36001;SDS011;22070;50.922;5.430;2024-02-28T12:27:29;16.98;;;5.68;;
36001;SDS011;22070;50.922;5.430;2024-02-28T12:29:56;14.55;;;5.05;;
36001;SDS011;22070;50.922;5.430;2024-02-28T12:32:21;10.40;;;4.82;;
36001;SDS011;22070;50.922;5.430;2024-02-28T12:34:47;9.27;;;4.40;;
36001;SDS011;22070;50.922;5.430;2024-02-28T12:37:13;8.07;;;4.00;;
36001;SDS011;22070;50.922;5.430;2024-02-28T12:39:38;12.40;;;3.40;;
36001;SDS011;22070;50.922;5.430;2024-02-28T12:42:04;8.63;;;3.87;;
36001;SDS011;22070;50.922;5.430;2024-02-28T12:44:32;12.23;;;3.58;;
36001;SDS011;22070;50.922;5.430;2024-02-28T12:46:57;8.88;;;3.28;;
36001;SDS011;22070;50.922;5.430;2024-02-28T12:49:23;4.78;;;2.30;;
36001;SDS011;22070;50.922;5.430;2024-02-28T12:51:48;8.97;;;3.43;;
36001;SDS011;22070;50.922;5.430;2024-02-28T12:54:16;7.93;;;2.33;;
36001;SDS011;22070;50.922;5.430;2024-02-28T12:56:43;4.32;;;1.90;;
36001;SDS011;22070;50.922;5.430;2024-02-28T12:59:09;7.95;;;2.40;;
36001;SDS011;22070;50.922;5.430;2024-02-28T13:01:36;4.22;;;1.70;;
36001;SDS011;22070;50.922;5.430;2024-02-28T13:04:02;3.58;;;1.90;;
36001;SDS011;22070;50.922;5.430;2024-02-28T13:06:28;5.30;;;2.30;;
36001;SDS011;22070;50.922;5.430;2024-02-28T13:08:53;3.97;;;1.70;;
36001;SDS011;22070;50.922;5.430;2024-02-28T13:11:19;2.75;;;1.40;;
36001;SDS011;22070;50.922;5.430;2024-02-28T13:13:47;4.15;;;1.45;;
36001;SDS011;22070;50.922;5.430;2024-02-28T13:16:16;3.47;;;1.27;;
36001;SDS011;22070;50.922;5.430;2024-02-28T13:18:43;4.60;;;1.10;;
36001;SDS011;22070;50.922;5.430;2024-02-28T13:21:09;1.03;;;0.93;;
36001;SDS011;22070;50.922;5.430;2024-02-28T13:23:35;1.77;;;0.93;;
36001;SDS011;22070;50.922;5.430;2024-02-28T13:28:31;1.42;;;0.93;;
36001;SDS011;22070;50.922;5.430;2024-02-28T13:30:58;0.88;;;0.57;;
36001;SDS011;22070;50.922;5.430;2024-02-28T13:33:27;1.17;;;0.70;;
36001;SDS011;22070;50.922;5.430;2024-02-28T13:35:53;1.73;;;0.90;;
36001;SDS011;22070;50.922;5.430;2024-02-28T13:38:19;1.30;;;0.80;;
36001;SDS011;22070;50.922;5.430;2024-02-28T13:40:49;1.08;;;0.65;;
36001;SDS011;22070;50.922;5.430;2024-02-28T13:43:15;1.05;;;0.77;;
36001;SDS011;22070;50.922;5.430;2024-02-28T13:45:51;0.97;;;0.70;;
36001;SDS011;22070;50.922;5.430;2024-02-28T13:50:53;0.57;;;0.50;;
36001;SDS011;22070;50.922;5.430;2024-02-28T13:53:19;0.65;;;0.35;;
36001;SDS011;22070;50.922;5.430;2024-02-28T13:55:45;0.77;;;0.70;;
36001;SDS011;22070;50.922;5.430;2024-02-28T13:58:11;1.35;;;0.60;;
36001;SDS011;22070;50.922;5.430;2024-02-28T14:00:38;0.85;;;0.82;;
36001;SDS011;22070;50.922;5.430;2024-02-28T14:03:04;1.42;;;0.57;;
36001;SDS011;22070;50.922;5.430;2024-02-28T14:05:33;0.80;;;0.80;;
36001;SDS011;22070;50.922;5.430;2024-02-28T14:07:59;1.42;;;0.65;;
36001;SDS011;22070;50.922;5.430;2024-02-28T14:10:25;1.30;;;0.60;;
36001;SDS011;22070;50.922;5.430;2024-02-28T14:12:51;0.90;;;0.80;;
36001;SDS011;22070;50.922;5.430;2024-02-28T14:15:18;2.40;;;0.80;;
36001;SDS011;22070;50.922;5.430;2024-02-28T14:17:44;1.30;;;0.80;;
36001;SDS011;22070;50.922;5.430;2024-02-28T14:20:10;0.70;;;0.68;;
36001;SDS011;22070;50.922;5.430;2024-02-28T14:22:36;1.67;;;0.88;;
36001;SDS011;22070;50.922;5.430;2024-02-28T14:25:06;0.70;;;0.50;;
36001;SDS011;22070;50.922;5.430;2024-02-28T14:27:37;1.25;;;0.63;;
36001;SDS011;22070;50.922;5.430;2024-02-28T14:30:02;1.58;;;0.75;;
36001;SDS011;22070;50.922;5.430;2024-02-28T14:32:33;1.63;;;0.80;;
36001;SDS011;22070;50.922;5.430;2024-02-28T14:34:58;1.00;;;0.90;;
36001;SDS011;22070;50.922;5.430;2024-02-28T14:37:24;1.30;;;0.80;;
36001;SDS011;22070;50.922;5.430;2024-02-28T14:39:50;1.10;;;0.80;;
36001;SDS011;22070;50.922;5.430;2024-02-28T14:42:15;1.70;;;1.40;;
36001;SDS011;22070;50.922;5.430;2024-02-28T14:44:41;0.80;;;0.60;;
36001;SDS011;22070;50.922;5.430;2024-02-28T14:47:07;1.00;;;0.80;;